Racecast

Grace Berkhausen

Liberty Common (CO) · 12 · CO D3A3A · Compare head to head

Athlete rating 127.5 2026 TF season
Best race 131.2 XC
Races 41
Seasons 4 2023 — 2026

RankedNation #7024·CO #292·CO D3A #74·Team #3 ?

Speed rating — all races

Cross Country

XC speed rating

2025 XC 115.1

Liberty Common (CO) · Grade 12

Date Meet Event Result Place Rating Difficulty PR/SR Flags
2025-11-22 Toka Sticks Golf Course 5000m 20:22.5 71st · 3rd on team 121.6 +0.009 ★CR SR CSR RSR
2025-09-26 North Lake Park 5000m 22:26.8 27th · 3rd on team 114.3 +0.041 ★CR CSR
2025-09-12 Liberty Common High School 5000m 21:01.1 2nd · 2nd on team 120.2 +0.032 ★CR SR CSR RSR
2025-08-30 Fort Collins High School 5000m 21:31 61st · 2nd on team 116.4 +0.023 SR CSR RSR
2025-08-23 Spring Canyon Park 5000m 24:22 57th · 3rd on team 103.0 +0.037 SR CSR RSR

2024 XC 121.6

Liberty Common (CO) · Grade 11

Date Meet Event Result Place Rating Difficulty PR/SR Flags
2024-11-02 Norris Penrose Event Center 5000m 19:54.5 17th · 1st on team 131.2 +0.067 ★PR ★CR ★R SR CSR RSR
2024-10-24 Jason Sams Memorial Park 5000m 21:09.2 3rd · 1st on team 121.7 +0.046 ★CR CSR
2024-09-21 Lyons Middle/High School 5000m 21:07.4 2nd · 1st on team 122.3 +0.046 ★CR CSR
2024-09-17 Willis Case Golf Corse 5000m 21:53.4 9th · 1st on team 123.2 +0.086 ★CR CSR
2024-09-09 Clear Creek Canyon Park 5000m 24:59 12th · 2nd on team 116.6 +0.189 ★CR CSR
2024-08-31 Fort Collins High School 5000m 20:39 36th · 1st on team 123.6 +0.023 PR ★CR SR CSR RSR
2024-08-23 Norris Penrose Event Center 5000m 23:18 18th · 1st on team 112.6 +0.067 SR CSR RSR

2023 XC 114.5

Liberty Common (CO) · Grade 10

Date Meet Event Result Place Rating Difficulty PR/SR Flags
2023-10-28 Norris Penrose Event Center 5000m 21:56.3 85th · 4th on team 119.0 +0.067 CR R CSR RSR
2023-10-19 Monfort Park 5000m 21:25.5 20th · 4th on team 119.0 +0.019 PR ★CR R SR CSR RSR
2023-09-09 Heritage High School 5000m 21:50.9 41st · 3rd on team 115.0 -0.001 PR ★CR R SR CSR RSR
2023-08-26 Fort Collins High School 5000m 22:32 45th · 4th on team 111.1 +0.023 PR CR R SR CSR RSR
2023-08-19 Spring Canyon Park 5000m 24:10 50th · 3rd on team 108.1 +0.037 PR ★CR R SR CSR RSR

Track & Field

TF speed rating

2026 TF 119.4

Liberty Common (CO) · Grade 12

Date Meet Event Result Place Rating Difficulty PR/SR Flags
2026-05-16 CHSAA State Championship 3200m 12:42.07 14th · 1st on team 118.3 -0.011
2026-05-09 Teddy's Last Chance 1600m 5:47.29 25th · 2nd on team 119.8 -0.014
2026-05-08 Hoka St. Vrain Invitational 3200m 12:38.33 51st · 2nd on team 118.4 -0.015
2026-04-24 Longmont Invitational 3200m 12:20.63 13th · 1st on team 121.2 -0.015
2026-04-18 Randall Hess Roughrider Invitational 3200m 11:56.52 8th · 1st on team 125.4 -0.014 ★PR SR
2026-04-08 Randy Yaussi PSD Meet 800m 2:33.9 11th · 1st on team 121.6 -0.012 SR
2026-04-08 Randy Yaussi PSD Meet 1600m 5:27.2 3rd · 1st on team 127.5 -0.012 ★PR SR RSR
2026-04-04 Altitude Running Invitational 1600m 5:59.33 34th · 2nd on team 116.1 -0.012
2026-03-28 University Bulldog Invitational 1600m 5:45.06 4th · 1st on team 120.9 -0.011 SR RSR
2026-03-28 University Bulldog Invitational 3200m 12:18.24 1st · 1st on team 122.1 -0.011 PR SR RSR
2026-03-21 Runners Roost of Fort Collins Invitational 3200m 13:33.8 9th · 1st on team 110.7 -0.012 SR
2026-03-07 John Martin Early Bird Invite 800m 2:44.55 17th · 1st on team 113.8 -0.011 SR RSR
2026-03-07 John Martin Early Bird Invite 1600m 5:58.14 23rd · 2nd on team 116.6 -0.011 SR RSR

2025 TF 118.9

Liberty Common (CO) · Grade 11

Date Meet Event Result Place Rating Difficulty PR/SR Flags
2025-05-15 CHSAA State Track & Field Championships 3200m 12:44.1 12th · 2nd on team 118.0 -0.011
2025-05-01 Patriot League Meet 3200m 12:24.9 4th · 2nd on team 120.7 -0.011 PR SR
2025-04-19 Randall Hess Roughrider Invitational 1600m 5:47.71 34th · 2nd on team 119.6 -0.014
2025-04-19 Randall Hess Roughrider Invitational 800m 2:31.5 22nd · 1st on team 123.4 -0.014 SR RSR
2025-04-05 Altitude Running Invite 1600m 5:39.45 18th · 2nd on team 122.7 -0.012 PR SR RSR
2025-03-13 NOCO Roosevelt Qualifier 1600m 5:56.45 13th · 2nd on team 116.5 -0.014 PR SR RSR
2025-03-13 NOCO Roosevelt Qualifier 3200m 13:26.11 2nd · 1st on team 111.4 -0.014 PR SR

2024 TF 121.3

Liberty Common (CO) · Grade 10

Date Meet Event Result Place Rating Difficulty PR/SR Flags
2024-05-10 HOKA St. Vrain Invitational 800m 2:28.26 53rd · 1st on team 125.8 -0.015 ★PR R SR RSR
2024-04-29 Randall Hess Roughrider Invitational 800m 2:33.72 19th · 2nd on team 121.6 -0.014 PR R SR RSR
2024-04-04 Altitude Running Invitational 800m 2:35.25 11th · 2nd on team 121.0 -0.009 PR R SR RSR
2024-03-22 Race results → 800m 2:37.36 30th · 1st on team 116.8 PR SR RSR